createdAt,value
2018-07-14T00:02:08.175Z,16.18
2018-07-14T00:04:37.145Z,16.08
2018-07-14T00:07:06.157Z,16.14
2018-07-14T00:09:34.949Z,15.95
2018-07-14T00:12:03.788Z,15.82
2018-07-14T00:14:32.625Z,15.81
2018-07-14T00:17:01.491Z,15.72
2018-07-14T00:19:30.355Z,16.07
2018-07-14T00:21:59.163Z,15.79
2018-07-14T00:24:28.051Z,15.77
2018-07-14T00:26:56.806Z,15.44
2018-07-14T00:29:25.711Z,15.34
2018-07-14T00:31:54.537Z,15.47
2018-07-14T00:34:23.360Z,15.41
2018-07-14T00:36:52.133Z,15.37
2018-07-14T00:39:20.987Z,15.51
2018-07-14T00:41:49.949Z,15.37
2018-07-14T00:44:18.809Z,15.26
2018-07-14T00:46:47.595Z,15.21
2018-07-14T00:49:16.449Z,15.34
2018-07-14T00:51:45.241Z,15.10
2018-07-14T00:54:14.168Z,14.76
2018-07-14T00:56:42.910Z,15.10
2018-07-14T00:59:12.096Z,14.80
2018-07-14T01:01:40.722Z,15.04
2018-07-14T01:04:09.516Z,15.18
2018-07-14T01:06:38.461Z,15.20
2018-07-14T01:09:07.638Z,15.12
2018-07-14T01:11:36.458Z,15.13
2018-07-14T01:14:05.371Z,14.90
2018-07-14T01:16:34.467Z,15.19
2018-07-14T01:19:03.321Z,15.12
2018-07-14T01:21:32.184Z,15.07
2018-07-14T01:24:00.938Z,15.13
2018-07-14T01:26:29.781Z,14.89
2018-07-14T01:28:58.552Z,15.20
2018-07-14T01:31:27.547Z,15.26
2018-07-14T01:33:56.299Z,15.07
2018-07-14T01:36:25.263Z,15.13
2018-07-14T01:38:54.020Z,15.14
2018-07-14T01:41:22.850Z,15.21
2018-07-14T01:43:51.736Z,15.17
2018-07-14T01:46:20.581Z,15.38
2018-07-14T01:48:49.353Z,15.15
2018-07-14T01:51:18.175Z,15.30
2018-07-14T01:53:46.935Z,15.24
2018-07-14T01:56:15.875Z,15.40
2018-07-14T01:58:44.668Z,15.27
2018-07-14T02:01:13.476Z,15.22
2018-07-14T02:03:42.147Z,15.24
2018-07-14T02:06:15.412Z,15.41
2018-07-14T02:08:44.322Z,15.20
2018-07-14T02:11:13.056Z,15.29
2018-07-14T02:13:41.916Z,15.42
2018-07-14T02:16:10.705Z,15.45
2018-07-14T02:18:39.510Z,15.52
2018-07-14T02:21:08.392Z,15.51
2018-07-14T02:23:37.214Z,15.26
2018-07-14T02:26:06.111Z,15.48
2018-07-14T02:28:34.923Z,15.50
2018-07-14T02:31:03.704Z,15.45
2018-07-14T02:33:32.585Z,15.65
2018-07-14T02:36:01.367Z,15.68
2018-07-14T02:38:30.188Z,15.62
2018-07-14T02:40:58.963Z,15.84
2018-07-14T02:43:27.783Z,15.63
2018-07-14T02:45:56.669Z,15.72
2018-07-14T02:48:25.523Z,15.45
2018-07-14T02:50:54.291Z,15.32
2018-07-14T02:53:22.920Z,15.40
2018-07-14T02:55:51.776Z,15.62
2018-07-14T02:58:21.090Z,15.67
2018-07-14T03:00:49.939Z,15.56
2018-07-14T03:03:18.744Z,15.63
2018-07-14T03:05:47.415Z,15.66
2018-07-14T03:08:16.425Z,15.67
2018-07-14T03:10:45.383Z,15.71
2018-07-14T03:13:14.140Z,15.76
2018-07-14T03:15:43.036Z,15.70
2018-07-14T03:18:11.829Z,15.78
2018-07-14T03:20:40.723Z,15.75
2018-07-14T03:23:09.380Z,15.78
2018-07-14T03:25:38.021Z,15.80
2018-07-14T03:28:06.677Z,15.92
2018-07-14T03:30:35.649Z,15.98
2018-07-14T03:33:04.497Z,15.80
2018-07-14T03:35:33.375Z,15.81
2018-07-14T03:38:02.171Z,15.89
2018-07-14T03:40:31.058Z,15.99
2018-07-14T03:42:59.848Z,15.96
2018-07-14T03:45:35.162Z,15.87
2018-07-14T03:48:03.975Z,15.98
2018-07-14T03:50:32.847Z,15.75
2018-07-14T03:53:01.636Z,15.85
2018-07-14T03:55:30.508Z,15.82
2018-07-14T03:57:59.090Z,15.93
2018-07-14T04:00:27.990Z,15.97
2018-07-14T04:02:56.603Z,16.20
2018-07-14T04:05:25.396Z,16.00
2018-07-14T04:07:54.217Z,16.07
2018-07-14T04:10:23.075Z,16.11
2018-07-14T04:12:51.772Z,15.99
2018-07-14T04:15:20.616Z,15.86
2018-07-14T04:18:00.581Z,16.09
2018-07-14T04:20:29.344Z,16.18
2018-07-14T04:22:58.867Z,16.15
2018-07-14T04:25:27.791Z,16.09
2018-07-14T04:27:56.968Z,16.10
2018-07-14T04:30:25.812Z,16.20
2018-07-14T04:32:54.713Z,16.15
2018-07-14T04:35:24.372Z,16.27
2018-07-14T04:37:53.244Z,16.19
2018-07-14T04:40:22.304Z,16.07
2018-07-14T04:42:51.215Z,16.23
2018-07-14T04:45:26.290Z,16.20
2018-07-14T04:47:55.197Z,16.09
2018-07-14T04:50:24.013Z,16.26
2018-07-14T04:52:52.903Z,16.27
2018-07-14T04:55:21.731Z,16.31
2018-07-14T04:57:50.429Z,16.38
2018-07-14T05:00:19.247Z,16.54
2018-07-14T05:02:48.080Z,16.30
2018-07-14T05:05:16.887Z,16.36
2018-07-14T05:07:45.494Z,16.55
2018-07-14T05:10:14.321Z,16.64
2018-07-14T05:12:43.139Z,16.50
2018-07-14T05:15:11.965Z,16.62
2018-07-14T05:17:40.815Z,16.72
2018-07-14T05:20:09.680Z,16.82
2018-07-14T05:22:38.467Z,16.71
2018-07-14T05:25:07.200Z,16.79
2018-07-14T05:27:35.823Z,16.85
2018-07-14T05:30:04.825Z,16.88
2018-07-14T05:32:33.909Z,16.58
2018-07-14T05:35:02.805Z,16.88
2018-07-14T05:37:31.795Z,17.01
2018-07-14T05:40:00.624Z,17.16
2018-07-14T05:42:29.907Z,16.99
2018-07-14T05:44:58.710Z,16.39
2018-07-14T05:47:27.473Z,17.03
2018-07-14T05:49:56.170Z,17.13
2018-07-14T05:52:24.963Z,17.24
2018-07-14T05:54:53.845Z,17.22
2018-07-14T05:57:22.932Z,17.07
2018-07-14T05:59:57.584Z,16.99
2018-07-14T06:02:26.382Z,16.91
2018-07-14T06:04:55.386Z,17.27
2018-07-14T06:07:24.250Z,17.20
2018-07-14T06:09:53.053Z,17.32
2018-07-14T06:12:21.856Z,17.29
2018-07-14T06:14:50.739Z,17.57
2018-07-14T06:17:19.604Z,17.56
2018-07-14T06:19:48.398Z,17.56
2018-07-14T06:22:17.288Z,17.84
2018-07-14T06:24:46.207Z,18.01
2018-07-14T06:27:15.208Z,18.06
2018-07-14T06:29:44.007Z,18.02
2018-07-14T06:32:13.478Z,18.16
2018-07-14T06:34:42.465Z,18.22
2018-07-14T06:37:11.383Z,18.25
2018-07-14T06:39:40.203Z,18.21
2018-07-14T06:42:09.019Z,17.94
2018-07-14T06:44:37.797Z,17.90
2018-07-14T06:47:06.663Z,17.85
2018-07-14T06:49:35.445Z,17.70
2018-07-14T06:52:04.505Z,17.72
2018-07-14T06:54:33.331Z,17.53
2018-07-14T06:57:03.028Z,17.71
2018-07-14T06:59:32.371Z,17.58
2018-07-14T07:02:01.268Z,17.76
2018-07-14T07:04:30.185Z,17.93
2018-07-14T07:06:59.062Z,17.96
2018-07-14T07:09:27.908Z,17.99
2018-07-14T07:11:56.692Z,17.67
2018-07-14T07:14:25.576Z,17.62
2018-07-14T07:16:54.432Z,17.80
2018-07-14T07:19:23.260Z,17.98
2018-07-14T07:21:52.477Z,18.10
2018-07-14T07:24:21.944Z,18.41
2018-07-14T07:26:50.840Z,18.41
2018-07-14T07:29:19.859Z,18.53
2018-07-14T07:31:48.629Z,18.41
2018-07-14T07:34:17.453Z,18.22
2018-07-14T07:36:46.652Z,18.71
2018-07-14T07:39:15.485Z,19.02
2018-07-14T07:41:44.350Z,18.91
2018-07-14T07:44:13.363Z,19.16
2018-07-14T07:46:42.166Z,19.07
2018-07-14T07:49:10.992Z,19.30
2018-07-14T07:51:40.819Z,19.42
2018-07-14T07:54:09.718Z,19.65
2018-07-14T07:56:38.590Z,19.69
2018-07-14T07:59:07.423Z,19.53
2018-07-14T08:01:36.039Z,19.37
2018-07-14T08:04:04.963Z,19.28
2018-07-14T08:06:33.784Z,19.06
2018-07-14T08:09:03.655Z,18.81
2018-07-14T08:11:32.402Z,18.79
2018-07-14T08:14:01.563Z,18.96
2018-07-14T08:16:30.465Z,19.05
2018-07-14T08:18:59.506Z,19.05
2018-07-14T08:21:28.352Z,19.03
2018-07-14T08:23:57.443Z,19.16
2018-07-14T08:26:26.255Z,18.84
2018-07-14T08:28:54.843Z,18.60
2018-07-14T08:31:23.925Z,19.15
2018-07-14T08:33:52.689Z,19.18
2018-07-14T08:36:21.532Z,19.44
2018-07-14T08:38:50.307Z,19.58
2018-07-14T08:41:19.330Z,19.78
2018-07-14T08:43:48.287Z,19.81
2018-07-14T08:46:17.296Z,19.47
2018-07-14T08:48:45.882Z,19.77
2018-07-14T08:51:14.554Z,20.28
2018-07-14T08:53:43.196Z,20.36
2018-07-14T08:56:12.159Z,20.59
2018-07-14T08:58:40.959Z,20.02
2018-07-14T09:01:09.757Z,20.50
2018-07-14T09:03:38.562Z,20.61
2018-07-14T09:06:07.395Z,19.79
2018-07-14T09:08:36.345Z,20.92
2018-07-14T09:11:05.225Z,21.33
2018-07-14T09:13:34.005Z,22.22
2018-07-14T09:16:02.816Z,22.65
2018-07-14T09:18:31.632Z,22.16
2018-07-14T09:21:00.492Z,22.13
2018-07-14T09:23:29.350Z,22.22
2018-07-14T09:25:58.168Z,22.53
2018-07-14T09:28:27.228Z,22.25
2018-07-14T09:30:55.994Z,22.26
2018-07-14T09:33:24.852Z,21.90
2018-07-14T09:35:53.632Z,21.78
2018-07-14T09:38:22.457Z,21.22
2018-07-14T09:40:51.218Z,21.31
2018-07-14T09:43:20.045Z,20.89
2018-07-14T09:45:49.865Z,21.53
2018-07-14T09:48:18.706Z,21.81
2018-07-14T09:50:47.455Z,21.91
2018-07-14T09:53:16.403Z,22.00
2018-07-14T09:55:45.203Z,21.28
2018-07-14T09:58:14.071Z,21.65
2018-07-14T10:00:48.280Z,22.21
2018-07-14T10:03:17.074Z,21.81
2018-07-14T10:05:45.897Z,21.53
2018-07-14T10:08:14.523Z,21.41
2018-07-14T10:10:43.396Z,21.85
2018-07-14T10:13:12.186Z,22.49
2018-07-14T10:15:41.000Z,22.55
2018-07-14T10:18:09.768Z,22.08
2018-07-14T10:20:38.667Z,21.76
2018-07-14T10:23:07.588Z,21.25
2018-07-14T10:25:36.433Z,20.95
2018-07-14T10:28:05.230Z,20.82
2018-07-14T10:30:34.360Z,20.94
2018-07-14T10:33:03.144Z,20.81
2018-07-14T10:35:32.008Z,20.89
2018-07-14T10:38:00.781Z,20.84
2018-07-14T10:40:29.584Z,20.89
2018-07-14T10:42:58.385Z,20.99
2018-07-14T10:45:33.343Z,20.79
2018-07-14T10:48:02.213Z,20.69
2018-07-14T10:50:30.870Z,21.03
2018-07-14T10:52:59.639Z,21.19
2018-07-14T10:55:28.495Z,21.22
2018-07-14T10:57:57.146Z,21.73
2018-07-14T11:00:25.999Z,21.72
2018-07-14T11:02:54.835Z,21.25
2018-07-14T11:05:23.623Z,21.76
2018-07-14T11:07:52.426Z,21.65
2018-07-14T11:10:21.182Z,21.96
2018-07-14T11:12:50.087Z,21.69
2018-07-14T11:15:18.878Z,21.61
2018-07-14T11:17:47.757Z,21.53
2018-07-14T11:20:16.496Z,21.05
2018-07-14T11:22:47.161Z,21.70
2018-07-14T11:25:16.218Z,21.85
2018-07-14T11:27:44.862Z,21.43
2018-07-14T11:30:14.042Z,21.44
2018-07-14T11:32:43.407Z,21.45
2018-07-14T11:35:12.224Z,21.77
2018-07-14T11:37:43.197Z,21.91
2018-07-14T11:40:12.078Z,21.57
2018-07-14T11:42:42.072Z,21.85
2018-07-14T11:45:18.820Z,21.99
2018-07-14T11:47:48.181Z,21.84
2018-07-14T11:50:17.055Z,22.36
2018-07-14T11:52:45.906Z,23.09
2018-07-14T11:55:14.758Z,23.44
2018-07-14T11:57:43.715Z,23.43
2018-07-14T12:00:12.579Z,22.54
2018-07-14T12:02:41.240Z,22.66
2018-07-14T12:05:10.112Z,22.67
2018-07-14T12:07:38.926Z,22.83
2018-07-14T12:10:07.811Z,22.46
2018-07-14T12:12:36.715Z,22.20
2018-07-14T12:15:05.624Z,22.03
2018-07-14T12:17:34.230Z,22.62
2018-07-14T12:20:03.159Z,23.22
2018-07-14T12:22:31.957Z,22.84
2018-07-14T12:25:00.963Z,22.10
2018-07-14T12:27:30.007Z,22.00
2018-07-14T12:29:58.812Z,22.84
2018-07-14T12:32:27.605Z,22.67
2018-07-14T12:34:56.420Z,22.51
2018-07-14T12:37:25.302Z,22.42
2018-07-14T12:39:54.098Z,22.55
2018-07-14T12:42:22.875Z,23.07
2018-07-14T12:44:51.714Z,23.19
2018-07-14T12:47:20.479Z,23.51
2018-07-14T12:49:49.378Z,23.01
2018-07-14T12:52:18.205Z,23.37
2018-07-14T12:54:47.109Z,22.83
2018-07-14T12:57:15.975Z,22.94
2018-07-14T12:59:44.726Z,22.24
2018-07-14T13:02:13.606Z,22.21
2018-07-14T13:04:42.876Z,22.58
2018-07-14T13:07:11.741Z,22.42
2018-07-14T13:09:40.321Z,22.60
2018-07-14T13:12:09.163Z,22.70
2018-07-14T13:14:37.801Z,22.54
2018-07-14T13:17:06.804Z,22.37
2018-07-14T13:19:35.558Z,22.73
2018-07-14T13:22:04.500Z,22.57
2018-07-14T13:24:33.316Z,22.36
2018-07-14T13:27:02.188Z,22.04
2018-07-14T13:29:30.984Z,21.95
2018-07-14T13:31:59.849Z,21.56
2018-07-14T13:34:28.426Z,21.61
2018-07-14T13:36:57.275Z,21.57
2018-07-14T13:39:26.154Z,21.87
2018-07-14T13:41:54.983Z,22.09
2018-07-14T13:44:23.824Z,22.00
2018-07-14T13:46:52.658Z,21.90
2018-07-14T13:49:21.533Z,21.81
2018-07-14T13:51:50.432Z,22.39
2018-07-14T13:54:19.274Z,22.57
2018-07-14T13:56:48.238Z,22.75
2018-07-14T13:59:16.984Z,22.46
2018-07-14T14:01:45.847Z,22.21
2018-07-14T14:04:14.758Z,22.17
2018-07-14T14:06:43.523Z,22.37
2018-07-14T14:09:12.341Z,22.65
2018-07-14T14:11:41.155Z,22.52
2018-07-14T14:14:09.964Z,22.53
2018-07-14T14:16:38.693Z,22.52
2018-07-14T14:19:08.047Z,22.19
2018-07-14T14:21:36.872Z,21.93
2018-07-14T14:24:05.529Z,22.04
2018-07-14T14:26:34.327Z,21.63
2018-07-14T14:29:03.275Z,21.82
2018-07-14T14:31:32.080Z,22.02
2018-07-14T14:34:00.899Z,22.37
2018-07-14T14:36:29.703Z,22.46
2018-07-14T14:38:58.470Z,22.23
2018-07-14T14:41:27.317Z,21.99
2018-07-14T14:43:56.299Z,22.79
2018-07-14T14:46:25.124Z,22.88
2018-07-14T14:48:54.016Z,22.70
2018-07-14T14:51:22.799Z,22.42
2018-07-14T14:53:51.511Z,22.64
2018-07-14T14:56:20.500Z,22.34
2018-07-14T14:58:49.818Z,22.50
2018-07-14T15:01:18.732Z,22.64
2018-07-14T15:03:47.355Z,22.51
2018-07-14T15:06:16.252Z,22.60
2018-07-14T15:08:45.211Z,22.36
2018-07-14T15:11:14.961Z,22.46
2018-07-14T15:13:44.044Z,21.98
2018-07-14T15:16:12.945Z,22.12
2018-07-14T15:18:42.022Z,21.88
2018-07-14T15:21:10.875Z,21.97
2018-07-14T15:23:39.725Z,21.99
2018-07-14T15:26:08.566Z,21.82
2018-07-14T15:28:37.379Z,21.85
2018-07-14T15:31:06.243Z,21.69
2018-07-14T15:33:35.003Z,21.38
2018-07-14T15:36:04.216Z,21.40
2018-07-14T15:38:33.007Z,21.55
2018-07-14T15:41:01.803Z,21.53
2018-07-14T15:43:30.707Z,21.43
2018-07-14T15:45:59.479Z,21.63
2018-07-14T15:48:28.347Z,21.58
2018-07-14T15:50:57.120Z,22.21
2018-07-14T15:53:25.940Z,21.90
2018-07-14T15:55:54.836Z,22.10
2018-07-14T15:58:23.643Z,21.80
2018-07-14T16:00:52.436Z,21.33
2018-07-14T16:03:21.236Z,21.38
2018-07-14T16:05:49.843Z,21.42
2018-07-14T16:08:18.585Z,21.22
2018-07-14T16:10:47.451Z,21.54
2018-07-14T16:13:16.409Z,21.63
2018-07-14T16:15:45.422Z,21.57
2018-07-14T16:18:14.484Z,21.46
2018-07-14T16:20:43.353Z,21.55
2018-07-14T16:23:12.278Z,21.70
2018-07-14T16:25:40.861Z,21.75
2018-07-14T16:28:09.505Z,21.67
2018-07-14T16:30:38.271Z,21.84
2018-07-14T16:33:07.301Z,21.83
2018-07-14T16:35:36.144Z,21.81
2018-07-14T16:38:05.195Z,22.20
2018-07-14T16:40:34.032Z,21.90
2018-07-14T16:43:03.039Z,21.66
2018-07-14T16:45:38.024Z,21.68
2018-07-14T16:48:07.180Z,21.58
2018-07-14T16:50:35.995Z,21.60
2018-07-14T16:53:04.900Z,21.31
2018-07-14T16:55:33.882Z,21.08
2018-07-14T16:58:02.590Z,20.99
2018-07-14T17:00:31.526Z,20.72
2018-07-14T17:03:00.435Z,20.71
2018-07-14T17:05:29.375Z,20.86
2018-07-14T17:07:58.207Z,21.05
2018-07-14T17:10:27.044Z,21.26
2018-07-14T17:12:56.203Z,20.98
2018-07-14T17:15:25.171Z,20.99
2018-07-14T17:17:53.939Z,20.75
2018-07-14T17:20:22.828Z,20.71
2018-07-14T17:22:51.458Z,20.63
2018-07-14T17:25:20.270Z,20.36
2018-07-14T17:27:49.116Z,20.41
2018-07-14T17:30:19.029Z,20.37
2018-07-14T17:32:47.986Z,20.47
2018-07-14T17:35:17.175Z,20.56
2018-07-14T17:37:46.434Z,20.50
2018-07-14T17:40:15.327Z,20.35
2018-07-14T17:42:44.109Z,20.37
2018-07-14T17:45:13.100Z,20.38
2018-07-14T17:47:42.195Z,20.41
2018-07-14T17:50:11.044Z,20.37
2018-07-14T17:52:39.940Z,20.38
2018-07-14T17:55:08.775Z,20.29
2018-07-14T17:57:38.158Z,20.06
2018-07-14T18:00:07.034Z,20.32
2018-07-14T18:02:35.881Z,20.20
2018-07-14T18:05:04.876Z,20.11
2018-07-14T18:07:33.774Z,20.16
2018-07-14T18:10:02.451Z,20.11
2018-07-14T18:12:31.284Z,20.17
2018-07-14T18:15:00.092Z,19.80
2018-07-14T18:17:30.306Z,19.74
2018-07-14T18:19:59.508Z,19.80
2018-07-14T18:22:28.378Z,19.80
2018-07-14T18:24:57.445Z,19.83
2018-07-14T18:27:26.311Z,19.83
2018-07-14T18:29:55.120Z,19.88
2018-07-14T18:32:23.907Z,19.83
2018-07-14T18:34:53.215Z,19.62
2018-07-14T18:37:22.063Z,19.60
2018-07-14T18:39:50.902Z,19.56
2018-07-14T18:42:20.351Z,19.42
2018-07-14T18:44:49.383Z,19.40
2018-07-14T18:47:18.440Z,19.36
2018-07-14T18:49:47.849Z,19.29
2018-07-14T18:52:16.668Z,19.40
2018-07-14T18:54:45.939Z,19.38
2018-07-14T18:57:14.858Z,19.38
2018-07-14T18:59:43.608Z,19.31
2018-07-14T19:02:12.449Z,19.17
2018-07-14T19:04:41.601Z,19.21
2018-07-14T19:07:10.424Z,19.08
2018-07-14T19:09:39.273Z,19.01
2018-07-14T19:12:09.415Z,18.99
2018-07-14T19:14:38.284Z,18.94
2018-07-14T19:17:07.093Z,18.72
2018-07-14T19:19:36.428Z,18.71
2018-07-14T19:22:05.261Z,18.63
2018-07-14T19:24:34.238Z,18.59
2018-07-14T19:27:03.020Z,18.56
2018-07-14T19:29:32.071Z,18.50
2018-07-14T19:32:00.654Z,18.35
2018-07-14T19:34:30.006Z,18.39
2018-07-14T19:36:59.453Z,18.36
2018-07-14T19:39:28.267Z,18.17
2018-07-14T19:41:57.091Z,18.19
2018-07-14T19:44:26.214Z,18.05
2018-07-14T19:46:55.057Z,18.02
2018-07-14T19:49:25.868Z,18.05
2018-07-14T19:51:56.446Z,17.72
2018-07-14T19:54:27.275Z,17.87
2018-07-14T19:56:56.283Z,17.75
2018-07-14T19:59:24.931Z,17.59
2018-07-14T20:01:53.586Z,17.68
2018-07-14T20:04:22.864Z,17.57
2018-07-14T20:06:54.684Z,17.63
2018-07-14T20:09:23.818Z,17.48
2018-07-14T20:11:52.883Z,17.49
2018-07-14T20:14:21.811Z,17.24
2018-07-14T20:16:50.772Z,17.10
2018-07-14T20:19:19.531Z,17.15
2018-07-14T20:21:48.328Z,16.93
2018-07-14T20:24:17.192Z,16.91
2018-07-14T20:26:46.174Z,16.96
2018-07-14T20:29:14.959Z,16.89
2018-07-14T20:31:43.771Z,16.88
2018-07-14T20:34:12.543Z,16.74
2018-07-14T20:36:41.441Z,16.74
2018-07-14T20:39:10.248Z,16.53
2018-07-14T20:41:39.206Z,16.56
2018-07-14T20:44:08.150Z,16.73
2018-07-14T20:46:36.822Z,16.76
2018-07-14T20:49:05.807Z,16.66
2018-07-14T20:51:34.661Z,16.60
2018-07-14T20:54:03.506Z,16.48
2018-07-14T20:56:32.327Z,16.43
2018-07-14T20:59:01.224Z,16.45
2018-07-14T21:01:30.200Z,16.46
2018-07-14T21:03:59.003Z,16.52
2018-07-14T21:06:27.771Z,16.26
2018-07-14T21:08:56.446Z,16.31
2018-07-14T21:11:25.215Z,16.22
2018-07-14T21:13:54.072Z,16.12
2018-07-14T21:16:22.865Z,16.11
2018-07-14T21:18:51.687Z,16.09
2018-07-14T21:21:20.598Z,16.13
2018-07-14T21:23:49.367Z,16.19
2018-07-14T21:26:18.219Z,16.17
2018-07-14T21:28:47.053Z,16.11
2018-07-14T21:31:15.859Z,16.09
2018-07-14T21:33:44.730Z,15.96
2018-07-14T21:36:13.559Z,15.72
2018-07-14T21:38:42.489Z,15.56
2018-07-14T21:41:11.535Z,15.28
2018-07-14T21:43:40.426Z,15.38
2018-07-14T21:46:09.198Z,15.38
2018-07-14T21:48:38.019Z,15.28
2018-07-14T21:51:06.912Z,15.28
2018-07-14T21:53:35.531Z,14.98
2018-07-14T21:56:04.372Z,14.87
2018-07-14T21:58:33.212Z,15.21
2018-07-14T22:01:07.740Z,14.95
2018-07-14T22:03:36.645Z,15.02
2018-07-14T22:06:05.653Z,15.05
2018-07-14T22:08:34.430Z,15.04
2018-07-14T22:11:03.299Z,14.82
2018-07-14T22:13:32.154Z,14.77
2018-07-14T22:16:01.059Z,14.71
2018-07-14T22:18:29.918Z,14.46
2018-07-14T22:20:58.749Z,14.11
2018-07-14T22:23:27.583Z,14.62
2018-07-14T22:25:56.396Z,14.69
2018-07-14T22:28:25.490Z,14.08
2018-07-14T22:30:54.327Z,14.42
2018-07-14T22:33:23.077Z,14.43
2018-07-14T22:35:51.976Z,14.52
2018-07-14T22:38:20.780Z,14.32
2018-07-14T22:40:49.651Z,14.34
2018-07-14T22:43:18.423Z,14.29
2018-07-14T22:45:52.313Z,14.21
2018-07-14T22:48:21.092Z,13.63
2018-07-14T22:50:50.323Z,13.76
2018-07-14T22:53:19.220Z,13.75
2018-07-14T22:55:48.013Z,13.72
2018-07-14T22:58:16.940Z,13.92
2018-07-14T23:00:46.301Z,13.81
2018-07-14T23:03:15.195Z,13.23
2018-07-14T23:05:44.000Z,13.82
2018-07-14T23:08:12.839Z,13.62
2018-07-14T23:10:41.595Z,13.48
2018-07-14T23:13:10.435Z,13.63
2018-07-14T23:15:39.275Z,13.64
2018-07-14T23:18:07.966Z,13.69
2018-07-14T23:20:36.567Z,13.44
2018-07-14T23:23:05.456Z,13.31
2018-07-14T23:25:34.256Z,13.28
2018-07-14T23:28:03.133Z,13.23
2018-07-14T23:30:32.902Z,13.09
2018-07-14T23:33:01.742Z,13.11
2018-07-14T23:35:30.528Z,13.13
2018-07-14T23:37:59.480Z,13.24
2018-07-14T23:40:28.359Z,13.13
2018-07-14T23:42:57.459Z,13.16
2018-07-14T23:45:32.274Z,13.25
2018-07-14T23:48:01.088Z,13.32
2018-07-14T23:50:29.980Z,13.24
2018-07-14T23:52:58.814Z,13.29
2018-07-14T23:55:27.655Z,13.37
2018-07-14T23:57:56.448Z,13.32
